^^
Your Local Weather - Clay, NY Station Historical Data
Daily Summary for May 6, 2017 Units:  English    Metric   Both
« Previous Day
Next Day »
Daily Weekly Monthly Yearly Custom
  High: Low: Average:
Temperature: 54.8 °F 44.7 °F 50 °F
Dew Point: 53.1 °F 42.2 °F 47.6 °F
Humidity: 94% 88% 92%
Wind Speed: 6.0mph 0.0mph 1.9mph
Wind Gust: 11.0mph - -
Wind- - South
Pressure: 29.39 in 29.23 in -
Precipitation: 0.64 in    
Historical Graphs
 
 
Tabular Data for May 6, 2017
Time Temperature Dew Point Pressure Wind Wind Speed Wind Gust Humidity Rainfall Rate (Hourly) solar
00:02 52.1 °F 49.0 °F 29.38 in ENE 4.0 mph 5.0 mph 89% 0.00 in 0 W/m2
00:08 52.1 °F 49.0 °F 29.37 in ENE 3.0 mph 5.0 mph 89% 0.00 in 0 W/m2
00:14 52.1 °F 48.7 °F 29.37 in ENE 4.0 mph 9.0 mph 88% 0.00 in 0 W/m2
00:20 52.1 °F 48.7 °F 29.37 in East 4.0 mph 5.0 mph 88% 0.00 in 0 W/m2
00:26 52.1 °F 48.7 °F 29.37 in ENE 5.0 mph 11.0 mph 88% 0.00 in 0 W/m2
00:32 52.1 °F 48.7 °F 29.37 in ESE 4.0 mph 5.0 mph 88% 0.00 in 0 W/m2
00:38 52.1 °F 48.7 °F 29.37 in ENE 3.0 mph 5.0 mph 88% 0.00 in 0 W/m2
00:44 52.2 °F 48.8 °F 29.36 in NE 3.0 mph 7.0 mph 88% 0.00 in 0 W/m2
00:50 52.2 °F 48.8 °F 29.36 in ENE 4.0 mph 4.0 mph 88% 0.00 in 0 W/m2
00:56 52.3 °F 48.9 °F 29.35 in East 5.0 mph 6.0 mph 88% 0.00 in 0 W/m2
01:02 52.4 °F 48.9 °F 29.35 in East 6.0 mph 9.0 mph 88% 0.00 in 0 W/m2
01:08 52.4 °F 48.9 °F 29.35 in NE 6.0 mph 9.0 mph 88% 0.00 in 0 W/m2
01:14 52.5 °F 49.0 °F 29.35 in ENE 5.0 mph 6.0 mph 88% 0.00 in 0 W/m2
01:20 52.4 °F 48.9 °F 29.34 in WSW 5.0 mph 5.0 mph 88% 0.00 in 0 W/m2
01:26 52.4 °F 48.9 °F 29.35 in ENE 6.0 mph 10.0 mph 88% 0.00 in 0 W/m2
01:32 52.3 °F 48.9 °F 29.34 in ENE 6.0 mph 7.0 mph 88% 0.00 in 0 W/m2
01:38 52.0 °F 48.9 °F 29.33 in SE 6.0 mph 7.0 mph 89% 0.00 in 0 W/m2
01:44 51.8 °F 48.7 °F 29.34 in ENE 4.0 mph 5.0 mph 89% 0.00 in 0 W/m2
01:50 51.8 °F 49.0 °F 29.33 in ENE 4.0 mph 7.0 mph 90% 0.00 in 0 W/m2
01:56 51.8 °F 49.0 °F 29.33 in ENE 4.0 mph 8.0 mph 90% 0.00 in 0 W/m2
02:02 51.8 °F 49.0 °F 29.33 in East 3.0 mph 3.0 mph 90% 0.00 in 0 W/m2
02:08 51.9 °F 49.1 °F 29.32 in ENE 3.0 mph 3.0 mph 90% 0.00 in 0 W/m2
02:14 52.3 °F 49.5 °F 29.32 in East 3.0 mph 5.0 mph 90% 0.00 in 0 W/m2
02:20 52.5 °F 49.7 °F 29.32 in ENE 2.0 mph 2.0 mph 90% 0.00 in 0 W/m2
02:26 52.7 °F 49.8 °F 29.32 in East 3.0 mph 3.0 mph 90% 0.00 in 0 W/m2
02:32 52.7 °F 49.8 °F 29.32 in East 3.0 mph 4.0 mph 90% 0.00 in 0 W/m2
02:38 52.8 °F 49.9 °F 29.32 in ENE 4.0 mph 7.0 mph 90% 0.00 in 0 W/m2
02:44 52.6 °F 49.8 °F 29.31 in NE 5.0 mph 7.0 mph 90% 0.00 in 0 W/m2
02:50 52.5 °F 49.7 °F 29.31 in ENE 5.0 mph 9.0 mph 90% 0.00 in 0 W/m2
02:56 52.3 °F 49.5 °F 29.30 in NE 5.0 mph 9.0 mph 90% 0.00 in 0 W/m2
03:02 52.0 °F 49.5 °F 29.29 in East 5.0 mph 7.0 mph 91% 0.00 in 0 W/m2
03:08 51.8 °F 49.3 °F 29.29 in NE 4.0 mph 8.0 mph 91% 0.00 in 0 W/m2
03:14 51.7 °F 49.2 °F 29.28 in ESE 4.0 mph 5.0 mph 91% 0.00 in 0 W/m2
03:20 51.6 °F 49.4 °F 29.28 in ENE 4.0 mph 4.0 mph 92% 0.00 in 0 W/m2
03:26 51.6 °F 49.4 °F 29.28 in NE 4.0 mph 4.0 mph 92% 0.00 in 0 W/m2
03:32 51.6 °F 49.4 °F 29.28 in East 3.0 mph 3.0 mph 92% 0.00 in 0 W/m2
03:38 51.6 °F 49.4 °F 29.28 in East 2.0 mph 3.0 mph 92% 0.00 in 0 W/m2
03:44 51.7 °F 49.5 °F 29.28 in ESE 2.0 mph 2.0 mph 92% 0.00 in 0 W/m2
03:50 51.7 °F 49.5 °F 29.28 in ENE 1.0 mph 1.0 mph 92% 0.00 in 0 W/m2
03:56 51.8 °F 49.5 °F 29.28 in East 2.0 mph 2.0 mph 92% 0.00 in 0 W/m2
04:02 51.8 °F 49.5 °F 29.27 in East 2.0 mph 5.0 mph 92% 0.00 in 0 W/m2
04:08 51.8 °F 49.5 °F 29.27 in ENE 2.0 mph 5.0 mph 92% 0.00 in 0 W/m2
04:14 51.8 °F 49.8 °F 29.27 in ESE 2.0 mph 4.0 mph 93% 0.00 in 0 W/m2
04:20 51.8 °F 49.8 °F 29.28 in ENE 3.0 mph 3.0 mph 93% 0.00 in 0 W/m2
04:26 51.8 °F 49.5 °F 29.27 in East 3.0 mph 6.0 mph 92% 0.00 in 0 W/m2
04:32 51.8 °F 49.5 °F 29.27 in East 4.0 mph 4.0 mph 92% 0.00 in 0 W/m2
04:38 51.7 °F 49.5 °F 29.27 in NE 3.0 mph 4.0 mph 92% 0.00 in 0 W/m2
04:44 51.6 °F 49.4 °F 29.27 in ENE 3.0 mph 4.0 mph 92% 0.00 in 0 W/m2
04:50 51.6 °F 49.4 °F 29.27 in ENE 2.0 mph 2.0 mph 92% 0.00 in 0 W/m2
04:56 51.6 °F 49.4 °F 29.26 in NNW 2.0 mph 4.0 mph 92% 0.00 in 0 W/m2
05:02 51.7 °F 49.5 °F 29.26 in NE 3.0 mph 3.0 mph 92% 0.00 in 0 W/m2
05:08 51.7 °F 49.5 °F 29.26 in ENE 2.0 mph 3.0 mph 92% 0.00 in 0 W/m2
05:14 51.8 °F 49.5 °F 29.25 in ENE 3.0 mph 4.0 mph 92% 0.00 in 0 W/m2
05:20 51.9 °F 49.6 °F 29.25 in ENE 3.0 mph 4.0 mph 92% 0.00 in 0 W/m2
05:26 52.0 °F 49.7 °F 29.25 in SSW 2.0 mph 4.0 mph 92% 0.00 in 0 W/m2
05:32 52.0 °F 49.7 °F 29.25 in SE 2.0 mph 2.0 mph 92% 0.00 in 0 W/m2
05:38 52.2 °F 49.9 °F 29.24 in ENE 3.0 mph 5.0 mph 92% 0.00 in 0 W/m2
05:44 52.2 °F 49.9 °F 29.24 in ENE 3.0 mph 3.0 mph 92% 0.00 in 0 W/m2
05:52 52.2 °F 49.9 °F 29.24 in East 3.0 mph 5.0 mph 92% 0.11 in 0 W/m2
05:58 52.3 °F 50.0 °F 29.24 in ENE 4.0 mph 7.0 mph 92% 0.07 in 0 W/m2
06:04 52.3 °F 50.0 °F 29.24 in East 4.0 mph 5.0 mph 92% 0.04 in 0 W/m2
06:10 52.3 °F 50.3 °F 29.24 in East 4.0 mph 4.0 mph 93% 0.00 in 0 W/m2
06:16 52.4 °F 50.4 °F 29.24 in East 5.0 mph 7.0 mph 93% 0.00 in 5 W/m2
06:22 52.5 °F 50.5 °F 29.24 in ESE 4.0 mph 4.0 mph 93% 0.00 in 7 W/m2
06:28 52.5 °F 50.5 °F 29.24 in East 3.0 mph 5.0 mph 93% 0.00 in 9 W/m2
06:34 52.5 °F 50.5 °F 29.23 in East 3.0 mph 3.0 mph 93% 0.00 in 9 W/m2
06:40 52.5 °F 50.5 °F 29.23 in ENE 3.0 mph 3.0 mph 93% 0.00 in 5 W/m2
06:46 52.5 °F 50.5 °F 29.23 in ENE 3.0 mph 8.0 mph 93% 0.00 in 7 W/m2
06:52 52.6 °F 50.6 °F 29.23 in East 3.0 mph 5.0 mph 93% 0.00 in 5 W/m2
06:58 52.6 °F 50.6 °F 29.26 in SW 2.0 mph 5.0 mph 93% 0.00 in 0 W/m2
07:04 52.6 °F 50.6 °F 29.24 in North 3.0 mph 6.0 mph 93% 0.35 in 33 W/m2
07:10 52.7 °F 50.7 °F 29.26 in SSE 3.0 mph 3.0 mph 93% 0.10 in 60 W/m2
07:16 52.8 °F 50.8 °F 29.26 in East 2.0 mph 5.0 mph 93% 0.14 in 49 W/m2
07:22 52.8 °F 50.8 °F 29.26 in ENE 1.0 mph 2.0 mph 93% 0.06 in 25 W/m2
07:28 52.7 °F 50.7 °F 29.25 in East 1.0 mph 2.0 mph 93% 0.04 in 16 W/m2
07:34 52.8 °F 50.8 °F 29.26 in Calm   1.0 mph 93% 0.04 in 14 W/m2
07:40 52.8 °F 50.8 °F 29.26 in Calm     93% 0.04 in 9 W/m2
07:46 52.7 °F 50.7 °F 29.26 in Calm     93% 0.05 in 12 W/m2
07:52 52.7 °F 50.7 °F 29.25 in Calm   2.0 mph 93% 0.07 in 25 W/m2
07:58 52.7 °F 50.7 °F 29.25 in NE 1.0 mph 3.0 mph 93% 0.09 in 39 W/m2
08:04 52.9 °F 50.9 °F 29.25 in NE 1.0 mph 1.0 mph 93% 0.07 in 35 W/m2
08:10 53.0 °F 51.0 °F 29.24 in East 2.0 mph 5.0 mph 93% 0.04 in 40 W/m2
08:16 53.2 °F 51.2 °F 29.24 in ESE 2.0 mph 5.0 mph 93% 0.00 in 39 W/m2
08:22 53.3 °F 51.6 °F 29.24 in ESE 2.0 mph 2.0 mph 94% 0.00 in 32 W/m2
08:28 53.4 °F 51.7 °F 29.24 in SE 1.0 mph 2.0 mph 94% 0.08 in 46 W/m2
08:34 53.4 °F 51.7 °F 29.24 in ESE 1.0 mph 1.0 mph 94% 0.08 in 46 W/m2
08:40 53.5 °F 51.8 °F 29.24 in ESE 1.0 mph 1.0 mph 94% 0.06 in 56 W/m2
08:46 53.6 °F 51.9 °F 29.24 in Calm   1.0 mph 94% 0.04 in 76 W/m2
08:52 53.7 °F 52.0 °F 29.24 in Calm     94% 0.04 in 67 W/m2
08:58 53.9 °F 52.2 °F 29.25 in Calm   1.0 mph 94% 0.04 in 56 W/m2
09:06 54.0 °F 52.3 °F 29.26 in Calm     94% 0.00 in 56 W/m2
09:12 54.1 °F 52.4 °F 29.26 in ESE 1.0 mph 1.0 mph 94% 0.00 in 58 W/m2
09:18 54.2 °F 52.5 °F 29.26 in Calm   1.0 mph 94% 0.00 in 104 W/m2
09:24 54.3 °F 52.6 °F 29.26 in Calm   2.0 mph 94% 0.06 in 69 W/m2
09:30 54.5 °F 52.8 °F 29.26 in ESE 1.0 mph 1.0 mph 94% 0.06 in 104 W/m2
09:36 54.7 °F 53.0 °F 29.26 in Calm   1.0 mph 94% 0.04 in 86 W/m2
09:42 54.8 °F 53.1 °F 29.25 in Calm   1.0 mph 94% 0.00 in 58 W/m2
09:48 54.6 °F 52.9 °F 29.25 in Calm   3.0 mph 94% 0.00 in 79 W/m2
09:54 54.3 °F 52.6 °F 29.24 in West 1.0 mph 4.0 mph 94% 0.00 in 67 W/m2
10:00 52.7 °F 50.7 °F 29.25 in SW 2.0 mph 4.0 mph 93% 0.00 in 54 W/m2
10:06 51.5 °F 49.5 °F 29.26 in SW 2.0 mph 4.0 mph 93% 0.00 in 49 W/m2
10:12 50.7 °F 48.7 °F 29.26 in WSW 3.0 mph 8.0 mph 93% 0.00 in 49 W/m2
10:18 50.7 °F 48.7 °F 29.26 in WSW 1.0 mph 8.0 mph 93% 0.00 in 58 W/m2
10:24 50.8 °F 48.8 °F 29.26 in Calm   1.0 mph 93% 0.00 in 81 W/m2
10:30 50.5 °F 48.6 °F 29.26 in SW 2.0 mph 4.0 mph 93% 0.00 in 77 W/m2
10:36 50.2 °F 48.3 °F 29.26 in WSW 3.0 mph 5.0 mph 93% 0.00 in 81 W/m2
10:42 50.2 °F 48.3 °F 29.26 in SW 1.0 mph 2.0 mph 93% 0.00 in 69 W/m2
10:48 49.9 °F 48.0 °F 29.27 in SSW 2.0 mph 5.0 mph 93% 0.00 in 83 W/m2
10:54 49.8 °F 47.9 °F 29.29 in SSW 3.0 mph 6.0 mph 93% 0.00 in 42 W/m2
11:00 49.7 °F 47.8 °F 29.28 in WSW 3.0 mph 3.0 mph 93% 0.00 in 109 W/m2
11:06 50.0 °F 48.1 °F 29.27 in WNW 2.0 mph 3.0 mph 93% 0.00 in 186 W/m2
11:12 50.1 °F 48.4 °F 29.27 in West 1.0 mph 1.0 mph 94% 0.07 in 179 W/m2
11:18 50.2 °F 48.5 °F 29.28 in SW 1.0 mph 3.0 mph 94% 0.05 in 209 W/m2
11:24 50.4 °F 48.7 °F 29.28 in SW 1.0 mph 2.0 mph 94% 0.00 in 102 W/m2
11:30 50.5 °F 48.6 °F 29.27 in NW 2.0 mph 2.0 mph 93% 0.00 in 355 W/m2
11:36 51.0 °F 49.3 °F 29.27 in West 1.0 mph 6.0 mph 94% 0.00 in 181 W/m2
11:42 50.9 °F 49.2 °F 29.26 in WNW 1.0 mph 2.0 mph 94% 0.00 in 243 W/m2
11:48 51.0 °F 49.0 °F 29.26 in NW 1.0 mph 2.0 mph 93% 0.00 in 269 W/m2
11:54 51.0 °F 49.0 °F 29.26 in NW 1.0 mph 1.0 mph 93% 0.00 in 244 W/m2
12:00 51.1 °F 49.1 °F 29.26 in SW 1.0 mph 1.0 mph 93% 0.00 in 163 W/m2
12:06 51.3 °F 49.3 °F 29.26 in SW 1.0 mph 1.0 mph 93% 0.00 in 148 W/m2
12:12 51.2 °F 49.2 °F 29.26 in SW 1.0 mph 3.0 mph 93% 0.00 in 69 W/m2
12:18 51.2 °F 49.2 °F 29.26 in SW 2.0 mph 2.0 mph 93% 0.00 in 109 W/m2
12:24 51.2 °F 49.2 °F 29.26 in West 1.0 mph 2.0 mph 93% 0.00 in 114 W/m2
12:30 51.2 °F 49.0 °F 29.26 in WNW 1.0 mph 2.0 mph 92% 0.00 in 102 W/m2
12:36 51.1 °F 48.9 °F 29.24 in WNW 1.0 mph 1.0 mph 92% 0.00 in 179 W/m2
12:42 51.4 °F 49.2 °F 29.24 in WNW 1.0 mph 1.0 mph 92% 0.00 in 265 W/m2
12:48 52.0 °F 50.0 °F 29.24 in NNW 1.0 mph 1.0 mph 93% 0.00 in 336 W/m2
12:54 51.9 °F 49.6 °F 29.24 in NNW 1.0 mph 2.0 mph 92% 0.00 in 104 W/m2
13:00 51.5 °F 49.3 °F 29.25 in NW 1.0 mph 1.0 mph 92% 0.00 in 105 W/m2
13:06 51.4 °F 48.9 °F 29.25 in NW 1.0 mph 2.0 mph 91% 0.00 in 95 W/m2
13:12 51.3 °F 48.8 °F 29.24 in West 1.0 mph 2.0 mph 91% 0.00 in 111 W/m2
13:18 51.3 °F 48.8 °F 29.24 in WSW 1.0 mph 2.0 mph 91% 0.00 in 76 W/m2
13:24 51.3 °F 48.8 °F 29.25 in West 1.0 mph 2.0 mph 91% 0.00 in 70 W/m2
13:30 51.1 °F 48.6 °F 29.25 in Calm     91% 0.00 in 33 W/m2
13:36 51.0 °F 48.5 °F 29.25 in Calm     91% 0.85 in 51 W/m2
13:42 50.9 °F 48.1 °F 29.25 in Calm     90% 0.46 in 70 W/m2
13:48 50.8 °F 48.3 °F 29.25 in Calm     91% 0.36 in 142 W/m2
13:54 51.0 °F 48.5 °F 29.24 in NW 1.0 mph 2.0 mph 91% 0.08 in 95 W/m2
14:00 51.0 °F 48.8 °F 29.25 in NW 1.0 mph 1.0 mph 92% 0.05 in 95 W/m2
14:06 50.9 °F 48.7 °F 29.25 in Calm   1.0 mph 92% 0.15 in 58 W/m2
14:12 50.8 °F 48.6 °F 29.26 in Calm     92% 0.29 in 93 W/m2
14:18 50.6 °F 48.4 °F 29.26 in SW 1.0 mph 4.0 mph 92% 0.30 in 30 W/m2
14:24 50.5 °F 48.3 °F 29.27 in South 2.0 mph 2.0 mph 92% 0.08 in 35 W/m2
14:30 50.5 °F 48.3 °F 29.27 in WSW 1.0 mph 2.0 mph 92% 0.07 in 49 W/m2
14:36 50.4 °F 48.2 °F 29.27 in West 2.0 mph 2.0 mph 92% 0.06 in 107 W/m2
14:42 50.6 °F 48.7 °F 29.27 in West 1.0 mph 1.0 mph 93% 0.16 in 127 W/m2
14:48 50.8 °F 48.8 °F 29.26 in Calm   2.0 mph 93% 0.11 in 121 W/m2
14:54 50.8 °F 48.8 °F 29.27 in West 1.0 mph 1.0 mph 93% 0.06 in 155 W/m2
15:00 50.8 °F 48.8 °F 29.27 in West 1.0 mph 1.0 mph 93% 0.05 in 86 W/m2
15:06 50.9 °F 48.9 °F 29.27 in Calm   1.0 mph 93% 0.05 in 76 W/m2
15:12 50.5 °F 48.6 °F 29.27 in North 1.0 mph 6.0 mph 93% 0.04 in 79 W/m2
15:18 50.1 °F 48.2 °F 29.27 in NW 2.0 mph 6.0 mph 93% 0.00 in 58 W/m2
15:24 49.8 °F 47.9 °F 29.27 in NNW 2.0 mph 5.0 mph 93% 0.00 in 95 W/m2
15:30 49.7 °F 47.5 °F 29.28 in North 2.0 mph 2.0 mph 92% 0.00 in 44 W/m2
15:36 49.8 °F 47.9 °F 29.29 in North 1.0 mph 2.0 mph 93% 0.00 in 18 W/m2
15:42 49.6 °F 47.7 °F 29.29 in NNW 1.0 mph 1.0 mph 93% 0.00 in 21 W/m2
15:48 49.3 °F 47.4 °F 29.29 in NNW 1.0 mph 2.0 mph 93% 0.00 in 21 W/m2
15:54 49.2 °F 47.3 °F 29.29 in NNW 1.0 mph 2.0 mph 93% 0.00 in 60 W/m2
16:00 49.3 °F 47.4 °F 29.29 in West 1.0 mph 1.0 mph 93% 0.16 in 86 W/m2
16:02 49.2 °F 47.3 °F 29.29 in Calm   1.0 mph 93% 0.16 in 63 W/m2
16:08 49.1 °F 46.9 °F 29.29 in Calm   2.0 mph 92% 0.06 in 53 W/m2
16:14 49.2 °F 47.0 °F 29.29 in SW 1.0 mph 2.0 mph 92% 0.04 in 53 W/m2
16:20 48.9 °F 46.7 °F 29.30 in WSW 2.0 mph 4.0 mph 92% 0.00 in 42 W/m2
16:26 48.9 °F 46.7 °F 29.30 in SW 2.0 mph 4.0 mph 92% 0.00 in 37 W/m2
16:32 48.7 °F 46.5 °F 29.31 in WSW 2.0 mph 2.0 mph 92% 0.00 in 26 W/m2
16:38 48.5 °F 46.3 °F 29.32 in WSW 3.0 mph 6.0 mph 92% 0.00 in 37 W/m2
16:44 48.3 °F 46.1 °F 29.32 in West 3.0 mph 4.0 mph 92% 0.00 in 40 W/m2
16:50 48.3 °F 46.1 °F 29.31 in WSW 2.0 mph 2.0 mph 92% 0.00 in 84 W/m2
16:56 48.1 °F 45.9 °F 29.31 in West 2.0 mph 3.0 mph 92% 0.00 in 76 W/m2
17:02 47.8 °F 45.6 °F 29.32 in SW 2.0 mph 2.0 mph 92% 0.00 in 69 W/m2
17:08 47.8 °F 45.6 °F 29.32 in West 1.0 mph 2.0 mph 92% 0.00 in 54 W/m2
17:14 47.5 °F 45.3 °F 29.32 in WNW 1.0 mph 2.0 mph 92% 0.00 in 79 W/m2
17:20 47.2 °F 44.7 °F 29.32 in WSW 2.0 mph 4.0 mph 91% 0.00 in 70 W/m2
17:26 47.1 °F 44.6 °F 29.33 in SW 2.0 mph 4.0 mph 91% 0.00 in 47 W/m2
17:32 47.0 °F 44.5 °F 29.33 in WSW 1.0 mph 3.0 mph 91% 0.00 in 33 W/m2
17:38 47.0 °F 44.5 °F 29.34 in WSW 2.0 mph 4.0 mph 91% 0.00 in 32 W/m2
17:44 46.8 °F 44.3 °F 29.34 in West 3.0 mph 4.0 mph 91% 0.00 in 39 W/m2
17:50 46.7 °F 44.2 °F 29.34 in West 4.0 mph 4.0 mph 91% 0.00 in 56 W/m2
17:56 46.6 °F 44.1 °F 29.34 in WSW 3.0 mph 9.0 mph 91% 0.00 in 35 W/m2
18:02 46.5 °F 43.7 °F 29.35 in WSW 3.0 mph 8.0 mph 90% 0.00 in 25 W/m2
18:08 46.5 °F 43.7 °F 29.35 in WSW 2.0 mph 8.0 mph 90% 0.00 in 26 W/m2
18:14 46.4 °F 43.6 °F 29.35 in West 2.0 mph 2.0 mph 90% 0.00 in 21 W/m2
18:20 46.4 °F 43.6 °F 29.35 in West 2.0 mph 3.0 mph 90% 0.00 in 21 W/m2
18:26 46.4 °F 43.6 °F 29.35 in West 1.0 mph 3.0 mph 90% 0.00 in 28 W/m2
18:32 46.5 °F 44.0 °F 29.35 in Calm   1.0 mph 91% 0.00 in 28 W/m2
18:38 46.5 °F 43.7 °F 29.35 in Calm   3.0 mph 90% 0.00 in 32 W/m2
18:44 46.6 °F 44.1 °F 29.35 in West 1.0 mph 2.0 mph 91% 0.00 in 25 W/m2
18:50 46.6 °F 44.1 °F 29.35 in West 1.0 mph 1.0 mph 91% 0.00 in 18 W/m2
18:56 46.5 °F 44.0 °F 29.35 in West 1.0 mph 2.0 mph 91% 0.00 in 14 W/m2
19:02 46.3 °F 43.8 °F 29.35 in SW 1.0 mph 1.0 mph 91% 0.00 in 9 W/m2
19:08 46.1 °F 43.6 °F 29.35 in WSW 1.0 mph 3.0 mph 91% 0.00 in 14 W/m2
19:14 46.0 °F 43.5 °F 29.35 in WSW 1.0 mph 5.0 mph 91% 0.00 in 18 W/m2
19:20 45.8 °F 43.3 °F 29.35 in WSW 1.0 mph 1.0 mph 91% 0.00 in 23 W/m2
19:26 46.0 °F 43.8 °F 29.35 in SW 1.0 mph 3.0 mph 92% 0.00 in 19 W/m2
19:32 46.0 °F 43.5 °F 29.35 in SW 2.0 mph 2.0 mph 91% 0.00 in 18 W/m2
19:38 46.0 °F 43.5 °F 29.35 in West 2.0 mph 6.0 mph 91% 0.00 in 14 W/m2
19:44 45.9 °F 43.4 °F 29.36 in West 2.0 mph 4.0 mph 91% 0.00 in 12 W/m2
19:50 46.0 °F 43.5 °F 29.36 in West 1.0 mph 1.0 mph 91% 0.00 in 7 W/m2
19:56 45.9 °F 43.4 °F 29.36 in SW 1.0 mph 3.0 mph 91% 0.00 in 5 W/m2
20:02 45.9 °F 43.4 °F 29.37 in WSW 2.0 mph 5.0 mph 91% 0.00 in 0 W/m2
20:08 45.9 °F 43.4 °F 29.37 in West 2.0 mph 5.0 mph 91% 0.00 in 0 W/m2
20:14 45.9 °F 43.1 °F 29.37 in SW 2.0 mph 2.0 mph 90% 0.00 in 0 W/m2
20:20 45.8 °F 43.0 °F 29.37 in West 2.0 mph 2.0 mph 90% 0.00 in 0 W/m2
20:26 45.8 °F 43.3 °F 29.37 in West 1.0 mph 2.0 mph 91% 0.00 in 0 W/m2
20:32 45.8 °F 43.3 °F 29.37 in West 1.0 mph 2.0 mph 91% 0.00 in 0 W/m2
20:38 45.8 °F 43.3 °F 29.37 in Calm   2.0 mph 91% 0.00 in 0 W/m2
20:44 45.8 °F 43.3 °F 29.38 in Calm   1.0 mph 91% 0.00 in 0 W/m2
20:50 45.9 °F 43.4 °F 29.38 in Calm     91% 0.00 in 0 W/m2
20:56 45.9 °F 43.4 °F 29.38 in Calm   2.0 mph 91% 0.00 in 0 W/m2
21:02 45.8 °F 43.3 °F 29.38 in SW 1.0 mph 2.0 mph 91% 0.00 in 0 W/m2
21:08 45.8 °F 43.3 °F 29.38 in WSW 1.0 mph 2.0 mph 91% 0.00 in 0 W/m2
21:14 45.8 °F 43.3 °F 29.38 in SW 1.0 mph 3.0 mph 91% 0.00 in 0 W/m2
21:20 45.8 °F 43.3 °F 29.38 in SW 2.0 mph 2.0 mph 91% 0.00 in 0 W/m2
21:26 45.8 °F 43.3 °F 29.38 in SW 1.0 mph 2.0 mph 91% 0.00 in 0 W/m2
21:32 45.8 °F 43.3 °F 29.38 in WSW 1.0 mph 1.0 mph 91% 0.00 in 0 W/m2
21:38 45.8 °F 43.3 °F 29.38 in WSW 1.0 mph 3.0 mph 91% 0.00 in 0 W/m2
21:44 45.7 °F 43.2 °F 29.38 in WSW 2.0 mph 2.0 mph 91% 0.00 in 0 W/m2
21:50 45.7 °F 43.2 °F 29.38 in SW 1.0 mph 1.0 mph 91% 0.00 in 0 W/m2
21:56 45.6 °F 43.1 °F 29.38 in WSW 1.0 mph 3.0 mph 91% 0.00 in 0 W/m2
22:02 45.6 °F 43.1 °F 29.38 in WSW 1.0 mph 2.0 mph 91% 0.00 in 0 W/m2
22:08 45.6 °F 43.1 °F 29.38 in SW 2.0 mph 4.0 mph 91% 0.00 in 0 W/m2
22:14 45.6 °F 43.1 °F 29.38 in WSW 3.0 mph 4.0 mph 91% 0.00 in 0 W/m2
22:20 45.5 °F 43.0 °F 29.38 in WSW 2.0 mph 2.0 mph 91% 0.00 in 0 W/m2
22:26 45.5 °F 43.0 °F 29.39 in WSW 1.0 mph 3.0 mph 91% 0.00 in 0 W/m2
22:32 45.5 °F 43.0 °F 29.39 in SSW 2.0 mph 2.0 mph 91% 0.00 in 0 W/m2
22:38 45.5 °F 43.0 °F 29.39 in WSW 1.0 mph 3.0 mph 91% 0.00 in 0 W/m2
22:44 45.5 °F 43.0 °F 29.39 in West 2.0 mph 3.0 mph 91% 0.00 in 0 W/m2
22:50 45.5 °F 42.7 °F 29.39 in WSW 2.0 mph 2.0 mph 90% 0.00 in 0 W/m2
22:56 45.5 °F 42.7 °F 29.39 in West 1.0 mph 2.0 mph 90% 0.00 in 0 W/m2
23:02 45.5 °F 42.7 °F 29.39 in WSW 1.0 mph 1.0 mph 90% 0.00 in 0 W/m2
23:08 45.4 °F 42.6 °F 29.39 in SSW 1.0 mph 3.0 mph 90% 0.00 in 0 W/m2
23:14 45.4 °F 42.6 °F 29.39 in West 2.0 mph 2.0 mph 90% 0.00 in 0 W/m2
23:20 45.2 °F 42.4 °F 29.39 in West 3.0 mph 4.0 mph 90% 0.00 in 0 W/m2
23:26 45.1 °F 42.3 °F 29.39 in SSW 3.0 mph 4.0 mph 90% 0.00 in 0 W/m2
23:32 45.0 °F 42.5 °F 29.39 in West 3.0 mph 4.0 mph 91% 0.00 in 0 W/m2
23:38 44.8 °F 42.3 °F 29.39 in WSW 3.0 mph 7.0 mph 91% 0.00 in 0 W/m2
23:44 44.8 °F 42.3 °F 29.39 in SW 2.0 mph 5.0 mph 91% 0.00 in 0 W/m2
23:50 44.7 °F 42.2 °F 29.39 in SW 3.0 mph 3.0 mph 91% 0.00 in 0 W/m2
23:56 44.7 °F 42.2 °F 29.39 in West 1.0 mph 5.0 mph 91% 0.00 in 0 W/m2
Country Meadow, Clay, NY, USA
Compliments of Weather Underground - 2 mb